Wisdom — V2CK3 — position and weather

sailwx.info

Track history (hours):
 
Tides and Currents Weather Stations Pressure Air Temp Water Temp Dewpoint Dewpoint Depression Visibility Wind Speed Wind Dir Waves Ship Positions

Wisdom

Last reported at 2017-Nov-18 07:17 UTC. Time now 2017-Nov-19 19:54 UTC.
Position N 27°46' W 015°09'.

Length 116 m; draft 7.1 m.

Type: Cargo ship. MMSI: 305026000.

Date/timePositionNaut miles runAvg speedWind from/ knotsBaromVisibWave heightAir tempDewpointWater temp
2017-Nov-18 07:17N 27°46' W 015°09'411.8
2017-Nov-18 06:58N 27°50' W 015°08'511.7
2017-Nov-18 06:30N 27°55' W 015°05'611.4
2017-Nov-18 06:00N 28°00' W 015°03'611.4
2017-Nov-18 05:30N 28°06' W 015°01'611.6
2017-Nov-18 05:00N 28°11' W 014°59'611.7
2017-Nov-18 04:30N 28°17' W 014°57'611.7
2017-Nov-18 04:00N 28°22' W 014°55'611.5
2017-Nov-18 03:30N 28°28' W 014°54'612.1
2017-Nov-18 03:00N 28°34' W 014°52'612.0
2017-Nov-18 02:29N 28°40' W 014°50'812.1
2017-Nov-18 01:49N 28°48' W 014°48'1711.8
2017-Nov-18 00:25N 29°04' W 014°44'512.0
2017-Nov-18 00:00N 29°09' W 014°43'611.6
2017-Nov-17 23:30N 29°14' W 014°42'611.6
2017-Nov-17 23:00N 29°20' W 014°40'611.6
2017-Nov-17 22:30N 29°26' W 014°39'611.8
2017-Nov-17 22:00N 29°31' W 014°37'611.6
2017-Nov-17 21:30N 29°37' W 014°36'611.6
2017-Nov-17 20:57N 29°43' W 014°34'611.5
2017-Nov-17 20:27N 29°49' W 014°33'711.6
2017-Nov-17 19:53N 29°55' W 014°31'411.4
2017-Nov-17 19:30N 29°60' W 014°30'611.5
2017-Nov-17 19:00N 30°05' W 014°29'  
2017-Nov-12 15:05N 49°58' W 002°58'1 8.7
2017-Nov-12 14:58N 49°58' W 002°57'4 8.3
2017-Nov-12 14:26N 50°00' W 002°51'4 7.8
2017-Nov-12 13:57N 50°01' W 002°45'4 7.8
2017-Nov-12 13:27N 50°02' W 002°39'4 8.5
2017-Nov-12 13:00N 50°03' W 002°33'29 9.5
2017-Nov-12 09:53N 50°11' W 001°49'511.4
2017-Nov-12 09:29N 50°13' W 001°42'611.5
2017-Nov-12 09:00N 50°14' W 001°34'611.7
2017-Nov-12 08:30N 50°16' W 001°25'4610.8
2017-Nov-12 04:13N 50°28' W 000°16'2 9.5
2017-Nov-12 04:00N 50°29' W 000°13'5 9.7
2017-Nov-12 03:30N 50°30' W 000°05'5 9.7
2017-Nov-12 03:00N 50°32' E 000°02'5 9.7
2017-Nov-12 02:30N 50°33' E 000°09'910.1
2017-Nov-12 01:38N 50°35' E 000°23'310.5
2017-Nov-12 01:23N 50°36' E 000°27'410.9
2017-Nov-12 01:00N 50°37' E 000°33'611.3
2017-Nov-12 00:30N 50°40' E 000°41'611.8
2017-Nov-12 00:00N 50°43' E 000°49'612.2
2017-Nov-11 23:30N 50°46' E 000°57'612.4
2017-Nov-11 23:00N 50°50' E 001°05'612.2
2017-Nov-11 22:28N 50°53' E 001°13'612.0
2017-Nov-11 21:56N 50°57' E 001°21'511.6
2017-Nov-11 21:30N 51°01' E 001°27'610.8
2017-Nov-11 20:59N 51°05' E 001°33'510.2
2017-Nov-11 20:30N 51°08' E 001°39'5 9.9
2017-Nov-11 20:00N 51°12' E 001°44'5 9.6
2017-Nov-11 19:30N 51°15' E 001°49'5 9.7
2017-Nov-11 19:00N 51°19' E 001°53'5 9.7
2017-Nov-11 18:30N 51°23' E 001°58'4 8.1
2017-Nov-11 18:00N 51°24' E 002°05'5 9.8
2017-Nov-11 17:30N 51°22' E 002°12'5 9.4
2017-Nov-11 17:00N 51°21' E 002°19'510.4
2017-Nov-11 16:29N 51°22' E 002°28'510.1
2017-Nov-11 16:00N 51°23' E 002°36'4 8.0
2017-Nov-11 15:30N 51°22' E 002°42'511.0
2017-Nov-11 15:00N 51°22' E 002°51'611.6
2017-Nov-11 14:30N 51°24' E 002°60'510.6
2017-Nov-11 14:01N 51°24' E 003°08'611.5
2017-Nov-11 13:30N 51°25' E 003°17'611.4
2017-Nov-11 13:00N 51°25' E 003°26'611.5
2017-Nov-11 12:30N 51°26' E 003°35'5 9.1
2017-Nov-11 12:00N 51°25' E 003°43'611.7
2017-Nov-11 11:30N 51°21' E 003°49'612.1
2017-Nov-11 11:00N 51°24' E 003°57'3 6.5
2017-Nov-11 10:30N 51°23' E 004°02'510.7
2017-Nov-11 10:00N 51°24' E 004°11'4 7.8
2017-Nov-11 09:30N 51°21' E 004°15'4 7.0
2017-Nov-11 09:00N 51°18' E 004°18'2 3.7
2017-Nov-11 08:31N 51°17' E 004°20'0 0.0
2017-Nov-11 08:00N 51°17' E 004°20'0 0.6
2017-Nov-11 07:30N 51°16' E 004°20'1 2.2
2017-Nov-11 06:59N 51°16' E 004°22'0 0.0
2017-Nov-11 06:29N 51°16' E 004°22'0 0.0
2017-Nov-11 05:59N 51°16' E 004°22'0 0.0
2017-Nov-11 05:29N 51°16' E 004°22'0 0.0
2017-Nov-11 04:59N 51°16' E 004°22'0 0.0
2017-Nov-11 04:29N 51°16' E 004°22'0 0.0
2017-Nov-11 03:59N 51°16' E 004°22'0 0.0
2017-Nov-11 03:29N 51°16' E 004°22'0 0.0
2017-Nov-11 02:59N 51°16' E 004°22'0 0.0
2017-Nov-11 02:29N 51°16' E 004°22'0 0.0
2017-Nov-11 01:59N 51°16' E 004°22'0 0.0
2017-Nov-11 01:29N 51°16' E 004°22'0 0.0
2017-Nov-11 00:59N 51°16' E 004°22'0 0.0
2017-Nov-11 00:29N 51°16' E 004°22'0 0.0
2017-Nov-10 23:59N 51°16' E 004°22'0 0.0
2017-Nov-10 23:29N 51°16' E 004°22'0 0.0
2017-Nov-10 22:56N 51°16' E 004°22'0 0.0
2017-Nov-10 22:26N 51°16' E 004°22'0 0.0
2017-Nov-10 21:59N 51°16' E 004°22'0 0.0
2017-Nov-10 21:26N 51°16' E 004°22'0 0.0
2017-Nov-10 20:59N 51°16' E 004°22'0 0.0
2017-Nov-10 20:26N 51°16' E 004°22'0 0.0
2017-Nov-10 19:59N 51°16' E 004°22'0 0.0
2017-Nov-10 19:29N 51°16' E 004°22'0 0.0
2017-Nov-10 18:59N 51°16' E 004°22'0 0.0
2017-Nov-10 18:29N 51°16' E 004°22'0 0.0
2017-Nov-10 17:59N 51°16' E 004°22'0 0.0
2017-Nov-10 17:29N 51°16' E 004°22'0 0.0
2017-Nov-10 16:59N 51°16' E 004°22'0 0.0
2017-Nov-10 16:29N 51°16' E 004°22'0 0.0
2017-Nov-10 15:59N 51°16' E 004°22'0 0.0
2017-Nov-10 15:29N 51°16' E 004°22'0 0.0
2017-Nov-10 14:59N 51°16' E 004°22'0 0.0
2017-Nov-10 14:29N 51°16' E 004°22'0 0.0
2017-Nov-10 13:59N 51°16' E 004°22'0 0.0
2017-Nov-10 13:29N 51°16' E 004°22'0 0.0
2017-Nov-10 12:59N 51°16' E 004°22'0 0.0
2017-Nov-10 12:29N 51°16' E 004°22'0 0.0
2017-Nov-10 11:59N 51°16' E 004°22'0 0.0
2017-Nov-10 11:29N 51°16' E 004°22'0 0.0
2017-Nov-10 10:59N 51°16' E 004°22'0 0.0
2017-Nov-10 10:29N 51°16' E 004°22'0 0.0
2017-Nov-10 09:59N 51°16' E 004°22'0 0.0
2017-Nov-10 09:29N 51°16' E 004°22'0 0.0
2017-Nov-10 08:59N 51°16' E 004°22'0 0.0
2017-Nov-10 08:29N 51°16' E 004°22'0 0.0
2017-Nov-10 07:59N 51°16' E 004°22'0 0.0
2017-Nov-10 07:29N 51°16' E 004°22'0 0.0
2017-Nov-10 06:59N 51°16' E 004°22'0 0.0
2017-Nov-10 06:29N 51°16' E 004°22'0 0.0
2017-Nov-10 05:59N 51°16' E 004°22'0 0.0
2017-Nov-10 05:29N 51°16' E 004°22'0 0.0
2017-Nov-10 05:00N 51°16' E 004°22'1 2.3
2017-Nov-10 04:30N 51°17' E 004°21'3 6.5
2017-Nov-10 04:00N 51°20' E 004°18'1 2.6
2017-Nov-10 03:30N 51°21' E 004°17'0 0.0
2017-Nov-10 03:01N 51°21' E 004°17'0 0.3
2017-Nov-10 02:31N 51°21' E 004°17'2 3.3
2017-Nov-10 02:00N 51°21' E 004°14'3 6.8
2017-Nov-10 01:30N 51°23' E 004°09'5 9.4
2017-Nov-10 01:00N 51°24' E 004°02'3 5.7
2017-Nov-10 00:30N 51°24' E 003°58'510.7
2017-Nov-10 00:00N 51°21' E 003°51'510.3
2017-Nov-09 23:30N 51°23' E 003°44'5 9.5
2017-Nov-09 23:00N 51°26' E 003°39'3 6.7
2017-Nov-09 22:30N 51°26' E 003°34'510.7
2017-Nov-09 22:00N 51°30' E 003°28'611.0
2017-Nov-09 21:30N 51°35' E 003°23'711.5
2017-Nov-09 20:54N 51°41' E 003°17'410.0
2017-Nov-09 20:30N 51°44' E 003°13'3 6.6
2017-Nov-09 20:00N 51°47' E 003°15'3 6.6
2017-Nov-09 19:30N 51°50' E 003°17'3 6.5
2017-Nov-09 18:59N 51°53' E 003°18'10211.0
2017-Nov-09 09:44N 53°25' E 004°33'24111.5
2017-Nov-08 12:47N 56°55' E 008°01'311.0
2017-Nov-08 12:29N 56°58' E 008°04'510.7
2017-Nov-08 12:00N 57°02' E 008°10'610.7
2017-Nov-08 11:29N 57°06' E 008°17'  
Track history (hours):
 
Tides and Currents Weather Stations Pressure Air Temp Water Temp Dewpoint Dewpoint Depression Visibility Wind Speed Wind Dir Waves Ship Positions

Wisdom

Last reported at 2017-Nov-18 07:17 UTC. Time now 2017-Nov-19 19:54 UTC.
Position N 27°46' W 015°09'.

Length 116 m; draft 7.1 m.

Type: Cargo ship. MMSI: 305026000.

Date/timePositionNaut miles runAvg speedWind from/ knotsBaromVisibWave heightAir tempDewpointWater temp
2017-Nov-18 07:17N 27°46' W 015°09'411.8
2017-Nov-18 06:58N 27°50' W 015°08'511.7
2017-Nov-18 06:30N 27°55' W 015°05'611.4
2017-Nov-18 06:00N 28°00' W 015°03'611.4
2017-Nov-18 05:30N 28°06' W 015°01'611.6
2017-Nov-18 05:00N 28°11' W 014°59'611.7
2017-Nov-18 04:30N 28°17' W 014°57'611.7
2017-Nov-18 04:00N 28°22' W 014°55'611.5
2017-Nov-18 03:30N 28°28' W 014°54'612.1
2017-Nov-18 03:00N 28°34' W 014°52'612.0
2017-Nov-18 02:29N 28°40' W 014°50'812.1
2017-Nov-18 01:49N 28°48' W 014°48'1711.8
2017-Nov-18 00:25N 29°04' W 014°44'512.0
2017-Nov-18 00:00N 29°09' W 014°43'611.6
2017-Nov-17 23:30N 29°14' W 014°42'611.6
2017-Nov-17 23:00N 29°20' W 014°40'611.6
2017-Nov-17 22:30N 29°26' W 014°39'611.8
2017-Nov-17 22:00N 29°31' W 014°37'611.6
2017-Nov-17 21:30N 29°37' W 014°36'611.6
2017-Nov-17 20:57N 29°43' W 014°34'611.5
2017-Nov-17 20:27N 29°49' W 014°33'711.6
2017-Nov-17 19:53N 29°55' W 014°31'411.4
2017-Nov-17 19:30N 29°60' W 014°30'611.5
2017-Nov-17 19:00N 30°05' W 014°29'  
2017-Nov-12 15:05N 49°58' W 002°58'1 8.7
2017-Nov-12 14:58N 49°58' W 002°57'4 8.3
2017-Nov-12 14:26N 50°00' W 002°51'4 7.8
2017-Nov-12 13:57N 50°01' W 002°45'4 7.8
2017-Nov-12 13:27N 50°02' W 002°39'4 8.5
2017-Nov-12 13:00N 50°03' W 002°33'29 9.5
2017-Nov-12 09:53N 50°11' W 001°49'511.4
2017-Nov-12 09:29N 50°13' W 001°42'611.5
2017-Nov-12 09:00N 50°14' W 001°34'611.7
2017-Nov-12 08:30N 50°16' W 001°25'4610.8
2017-Nov-12 04:13N 50°28' W 000°16'2 9.5
2017-Nov-12 04:00N 50°29' W 000°13'5 9.7
2017-Nov-12 03:30N 50°30' W 000°05'5 9.7
2017-Nov-12 03:00N 50°32' E 000°02'5 9.7
2017-Nov-12 02:30N 50°33' E 000°09'910.1
2017-Nov-12 01:38N 50°35' E 000°23'310.5
2017-Nov-12 01:23N 50°36' E 000°27'410.9
2017-Nov-12 01:00N 50°37' E 000°33'611.3
2017-Nov-12 00:30N 50°40' E 000°41'611.8
2017-Nov-12 00:00N 50°43' E 000°49'612.2
2017-Nov-11 23:30N 50°46' E 000°57'612.4
2017-Nov-11 23:00N 50°50' E 001°05'612.2
2017-Nov-11 22:28N 50°53' E 001°13'612.0
2017-Nov-11 21:56N 50°57' E 001°21'511.6
2017-Nov-11 21:30N 51°01' E 001°27'610.8
2017-Nov-11 20:59N 51°05' E 001°33'510.2
2017-Nov-11 20:30N 51°08' E 001°39'5 9.9
2017-Nov-11 20:00N 51°12' E 001°44'5 9.6
2017-Nov-11 19:30N 51°15' E 001°49'5 9.7
2017-Nov-11 19:00N 51°19' E 001°53'5 9.7
2017-Nov-11 18:30N 51°23' E 001°58'4 8.1
2017-Nov-11 18:00N 51°24' E 002°05'5 9.8
2017-Nov-11 17:30N 51°22' E 002°12'5 9.4
2017-Nov-11 17:00N 51°21' E 002°19'510.4
2017-Nov-11 16:29N 51°22' E 002°28'510.1
2017-Nov-11 16:00N 51°23' E 002°36'4 8.0
2017-Nov-11 15:30N 51°22' E 002°42'511.0
2017-Nov-11 15:00N 51°22' E 002°51'611.6
2017-Nov-11 14:30N 51°24' E 002°60'510.6
2017-Nov-11 14:01N 51°24' E 003°08'611.5
2017-Nov-11 13:30N 51°25' E 003°17'611.4
2017-Nov-11 13:00N 51°25' E 003°26'611.5
2017-Nov-11 12:30N 51°26' E 003°35'5 9.1
2017-Nov-11 12:00N 51°25' E 003°43'611.7
2017-Nov-11 11:30N 51°21' E 003°49'612.1
2017-Nov-11 11:00N 51°24' E 003°57'3 6.5
2017-Nov-11 10:30N 51°23' E 004°02'510.7
2017-Nov-11 10:00N 51°24' E 004°11'4 7.8
2017-Nov-11 09:30N 51°21' E 004°15'4 7.0
2017-Nov-11 09:00N 51°18' E 004°18'2 3.7
2017-Nov-11 08:31N 51°17' E 004°20'0 0.0
2017-Nov-11 08:00N 51°17' E 004°20'0 0.6
2017-Nov-11 07:30N 51°16' E 004°20'1 2.2
2017-Nov-11 06:59N 51°16' E 004°22'0 0.0
2017-Nov-11 06:29N 51°16' E 004°22'0 0.0
2017-Nov-11 05:59N 51°16' E 004°22'0 0.0
2017-Nov-11 05:29N 51°16' E 004°22'0 0.0
2017-Nov-11 04:59N 51°16' E 004°22'0 0.0
2017-Nov-11 04:29N 51°16' E 004°22'0 0.0
2017-Nov-11 03:59N 51°16' E 004°22'0 0.0
2017-Nov-11 03:29N 51°16' E 004°22'0 0.0
2017-Nov-11 02:59N 51°16' E 004°22'0 0.0
2017-Nov-11 02:29N 51°16' E 004°22'0 0.0
2017-Nov-11 01:59N 51°16' E 004°22'0 0.0
2017-Nov-11 01:29N 51°16' E 004°22'0 0.0
2017-Nov-11 00:59N 51°16' E 004°22'0 0.0
2017-Nov-11 00:29N 51°16' E 004°22'0 0.0
2017-Nov-10 23:59N 51°16' E 004°22'0 0.0
2017-Nov-10 23:29N 51°16' E 004°22'0 0.0
2017-Nov-10 22:56N 51°16' E 004°22'0 0.0
2017-Nov-10 22:26N 51°16' E 004°22'0 0.0
2017-Nov-10 21:59N 51°16' E 004°22'0 0.0
2017-Nov-10 21:26N 51°16' E 004°22'0 0.0
2017-Nov-10 20:59N 51°16' E 004°22'0 0.0
2017-Nov-10 20:26N 51°16' E 004°22'0 0.0
2017-Nov-10 19:59N 51°16' E 004°22'0 0.0
2017-Nov-10 19:29N 51°16' E 004°22'0 0.0
2017-Nov-10 18:59N 51°16' E 004°22'0 0.0
2017-Nov-10 18:29N 51°16' E 004°22'0 0.0
2017-Nov-10 17:59N 51°16' E 004°22'0 0.0
2017-Nov-10 17:29N 51°16' E 004°22'0 0.0
2017-Nov-10 16:59N 51°16' E 004°22'0 0.0
2017-Nov-10 16:29N 51°16' E 004°22'0 0.0
2017-Nov-10 15:59N 51°16' E 004°22'0 0.0
2017-Nov-10 15:29N 51°16' E 004°22'0 0.0
2017-Nov-10 14:59N 51°16' E 004°22'0 0.0
2017-Nov-10 14:29N 51°16' E 004°22'0 0.0
2017-Nov-10 13:59N 51°16' E 004°22'0 0.0
2017-Nov-10 13:29N 51°16' E 004°22'0 0.0
2017-Nov-10 12:59N 51°16' E 004°22'0 0.0
2017-Nov-10 12:29N 51°16' E 004°22'0 0.0
2017-Nov-10 11:59N 51°16' E 004°22'0 0.0
2017-Nov-10 11:29N 51°16' E 004°22'0 0.0
2017-Nov-10 10:59N 51°16' E 004°22'0 0.0
2017-Nov-10 10:29N 51°16' E 004°22'0 0.0
2017-Nov-10 09:59N 51°16' E 004°22'0 0.0
2017-Nov-10 09:29N 51°16' E 004°22'0 0.0
2017-Nov-10 08:59N 51°16' E 004°22'0 0.0
2017-Nov-10 08:29N 51°16' E 004°22'0 0.0
2017-Nov-10 07:59N 51°16' E 004°22'0 0.0
2017-Nov-10 07:29N 51°16' E 004°22'0 0.0
2017-Nov-10 06:59N 51°16' E 004°22'0 0.0
2017-Nov-10 06:29N 51°16' E 004°22'0 0.0
2017-Nov-10 05:59N 51°16' E 004°22'0 0.0
2017-Nov-10 05:29N 51°16' E 004°22'0 0.0
2017-Nov-10 05:00N 51°16' E 004°22'1 2.3
2017-Nov-10 04:30N 51°17' E 004°21'3 6.5
2017-Nov-10 04:00N 51°20' E 004°18'1 2.6
2017-Nov-10 03:30N 51°21' E 004°17'0 0.0
2017-Nov-10 03:01N 51°21' E 004°17'0 0.3
2017-Nov-10 02:31N 51°21' E 004°17'2 3.3
2017-Nov-10 02:00N 51°21' E 004°14'3 6.8
2017-Nov-10 01:30N 51°23' E 004°09'5 9.4
2017-Nov-10 01:00N 51°24' E 004°02'3 5.7
2017-Nov-10 00:30N 51°24' E 003°58'510.7
2017-Nov-10 00:00N 51°21' E 003°51'510.3
2017-Nov-09 23:30N 51°23' E 003°44'5 9.5
2017-Nov-09 23:00N 51°26' E 003°39'3 6.7
2017-Nov-09 22:30N 51°26' E 003°34'510.7
2017-Nov-09 22:00N 51°30' E 003°28'611.0
2017-Nov-09 21:30N 51°35' E 003°23'711.5
2017-Nov-09 20:54N 51°41' E 003°17'410.0
2017-Nov-09 20:30N 51°44' E 003°13'3 6.6
2017-Nov-09 20:00N 51°47' E 003°15'3 6.6
2017-Nov-09 19:30N 51°50' E 003°17'3 6.5
2017-Nov-09 18:59N 51°53' E 003°18'10211.0
2017-Nov-09 09:44N 53°25' E 004°33'24111.5
2017-Nov-08 12:47N 56°55' E 008°01'311.0
2017-Nov-08 12:29N 56°58' E 008°04'510.7
2017-Nov-08 12:00N 57°02' E 008°10'610.7
2017-Nov-08 11:29N 57°06' E 008°17'  

Dump ship's entire track history